createdAt,value
2022-10-09T00:00:07.245Z,2.80
2022-10-09T00:02:37.611Z,3.07
2022-10-09T00:05:08.712Z,2.70
2022-10-09T00:07:39.178Z,2.90
2022-10-09T00:10:09.916Z,3.05
2022-10-09T00:12:40.284Z,2.90
2022-10-09T00:15:11.406Z,3.00
2022-10-09T00:17:41.804Z,3.10
2022-10-09T00:20:12.623Z,3.00
2022-10-09T00:22:44.748Z,3.10
2022-10-09T00:25:15.227Z,2.60
2022-10-09T00:27:45.546Z,2.87
2022-10-09T00:30:16.079Z,3.17
2022-10-09T00:32:46.787Z,2.83
2022-10-09T00:35:17.495Z,2.90
2022-10-09T00:37:48.741Z,2.97
2022-10-09T00:40:21.098Z,2.90
2022-10-09T00:42:59.181Z,3.00
2022-10-09T00:45:30.555Z,3.20
2022-10-09T00:48:07.333Z,3.40
2022-10-09T00:50:55.154Z,2.87
2022-10-09T00:53:28.021Z,2.97
2022-10-09T00:55:59.244Z,3.53
2022-10-09T00:58:29.732Z,3.27
2022-10-09T01:01:00.506Z,2.63
2022-10-09T01:03:30.854Z,2.93
2022-10-09T01:06:23.969Z,3.00
2022-10-09T01:09:15.663Z,3.30
2022-10-09T01:12:00.991Z,3.13
2022-10-09T01:14:34.411Z,3.00
2022-10-09T01:17:10.834Z,2.70
2022-10-09T01:20:04.696Z,3.20
2022-10-09T01:23:01.921Z,3.00
2022-10-09T01:25:47.571Z,2.70
2022-10-09T01:28:21.125Z,3.00
2022-10-09T01:30:52.390Z,3.37
2022-10-09T01:33:23.039Z,2.83
2022-10-09T01:35:55.226Z,3.13
2022-10-09T01:38:26.366Z,3.00
2022-10-09T01:40:57.806Z,3.07
2022-10-09T01:43:28.210Z,3.43
2022-10-09T01:46:24.272Z,3.00
2022-10-09T01:48:57.948Z,3.00
2022-10-09T01:51:31.320Z,3.33
2022-10-09T01:54:04.826Z,2.67
2022-10-09T01:56:37.729Z,3.30
2022-10-09T01:59:16.110Z,2.97
2022-10-09T02:01:47.727Z,3.10
2022-10-09T02:04:19.431Z,2.77
2022-10-09T02:06:50.333Z,2.70
2022-10-09T02:09:20.712Z,2.97
2022-10-09T02:11:54.206Z,2.80
2022-10-09T02:14:24.809Z,3.07
2022-10-09T02:17:00.988Z,2.67
2022-10-09T02:19:34.811Z,2.77
2022-10-09T02:22:20.170Z,2.98
2022-10-09T02:24:50.785Z,3.00
2022-10-09T02:27:22.937Z,2.83
2022-10-09T02:29:54.092Z,3.37
2022-10-09T02:32:24.562Z,3.20
2022-10-09T02:34:54.967Z,2.93
2022-10-09T02:37:25.540Z,3.13
2022-10-09T02:39:56.027Z,3.10
2022-10-09T02:42:26.496Z,2.98
2022-10-09T02:44:56.912Z,2.70
2022-10-09T02:47:27.233Z,2.80
2022-10-09T02:49:57.633Z,2.73
2022-10-09T02:52:28.143Z,3.50
2022-10-09T02:54:58.516Z,2.90
2022-10-09T02:57:29.124Z,2.93
2022-10-09T02:59:59.433Z,2.57
2022-10-09T03:02:30.092Z,2.73
2022-10-09T03:05:00.813Z,2.60
2022-10-09T03:07:31.195Z,2.87
2022-10-09T03:10:01.669Z,3.00
2022-10-09T03:12:31.992Z,2.90
2022-10-09T03:15:02.454Z,3.10
2022-10-09T03:17:32.818Z,2.60
2022-10-09T03:20:03.253Z,2.80
2022-10-09T03:22:33.595Z,2.97
2022-10-09T03:25:04.161Z,2.50
2022-10-09T03:27:34.895Z,3.60
2022-10-09T03:30:05.988Z,2.90
2022-10-09T03:32:36.380Z,3.40
2022-10-09T03:35:07.477Z,3.53
2022-10-09T03:37:37.780Z,3.30
2022-10-09T03:40:08.823Z,3.13
2022-10-09T03:42:39.142Z,3.10
2022-10-09T03:45:10.421Z,3.33
2022-10-09T03:47:40.834Z,3.43
2022-10-09T03:50:11.419Z,3.20
2022-10-09T03:52:41.721Z,2.90
2022-10-09T03:55:12.128Z,3.00
2022-10-09T03:57:42.586Z,3.07
2022-10-09T04:00:14.019Z,3.37
2022-10-09T04:02:44.814Z,3.13
2022-10-09T04:05:15.409Z,3.00
2022-10-09T04:07:46.173Z,3.20
2022-10-09T04:10:16.770Z,3.27
2022-10-09T04:12:47.443Z,3.17
2022-10-09T04:15:18.293Z,3.43
2022-10-09T04:17:48.670Z,3.07
2022-10-09T04:20:20.804Z,3.07
2022-10-09T04:22:51.645Z,3.10
2022-10-09T04:25:22.213Z,2.83
2022-10-09T04:27:52.570Z,3.30
2022-10-09T04:30:22.879Z,3.40
2022-10-09T04:32:53.175Z,3.17
2022-10-09T04:35:23.576Z,3.43
2022-10-09T04:37:53.943Z,3.30
2022-10-09T04:40:24.344Z,3.33
2022-10-09T04:42:54.716Z,3.50
2022-10-09T04:45:25.114Z,3.30
2022-10-09T04:47:55.440Z,3.30
2022-10-09T04:50:25.955Z,3.10
2022-10-09T04:52:56.254Z,3.00
2022-10-09T04:55:26.564Z,3.40
2022-10-09T04:57:56.871Z,3.27
2022-10-09T05:00:27.214Z,3.17
2022-10-09T05:02:57.587Z,3.70
2022-10-09T05:05:27.894Z,3.37
2022-10-09T05:07:58.252Z,3.00
2022-10-09T05:10:28.639Z,3.37
2022-10-09T05:12:59.844Z,3.10
2022-10-09T05:15:30.249Z,3.23
2022-10-09T05:18:00.596Z,3.17
2022-10-09T05:20:30.936Z,3.30
2022-10-09T05:23:01.486Z,3.30
2022-10-09T05:25:31.839Z,3.57
2022-10-09T05:28:04.779Z,3.57
2022-10-09T05:30:35.065Z,3.30
2022-10-09T05:33:05.446Z,3.27
2022-10-09T05:35:35.801Z,3.30
2022-10-09T05:38:06.163Z,3.47
2022-10-09T05:40:36.563Z,3.57
2022-10-09T05:43:06.978Z,3.40
2022-10-09T05:45:37.369Z,3.60
2022-10-09T05:48:07.805Z,3.73
2022-10-09T05:50:38.215Z,4.00
2022-10-09T05:53:08.624Z,5.10
2022-10-09T05:55:38.939Z,3.47
2022-10-09T05:58:09.365Z,3.50
2022-10-09T06:00:39.702Z,3.33
2022-10-09T06:03:10.062Z,3.47
2022-10-09T06:05:40.421Z,3.70
2022-10-09T06:08:10.747Z,3.37
2022-10-09T06:10:41.143Z,3.57
2022-10-09T06:13:11.533Z,3.43
2022-10-09T06:15:43.545Z,3.83
2022-10-09T06:18:15.387Z,4.03
2022-10-09T06:20:54.045Z,3.50
2022-10-09T06:23:24.620Z,3.63
2022-10-09T06:25:56.845Z,3.27
2022-10-09T06:28:30.765Z,3.50
2022-10-09T06:31:07.576Z,3.60
2022-10-09T06:33:40.099Z,3.52
2022-10-09T06:36:13.976Z,3.60
2022-10-09T06:38:44.815Z,4.03
2022-10-09T06:41:17.830Z,3.58
2022-10-09T06:44:04.044Z,4.10
2022-10-09T06:46:37.745Z,4.43
2022-10-09T06:49:09.301Z,4.00
2022-10-09T06:51:40.130Z,4.77
2022-10-09T06:54:17.240Z,4.30
2022-10-09T06:56:47.675Z,4.10
2022-10-09T06:59:18.156Z,4.17
2022-10-09T07:01:48.646Z,4.03
2022-10-09T07:04:19.221Z,4.13
2022-10-09T07:06:49.747Z,4.50
2022-10-09T07:09:20.144Z,4.93
2022-10-09T07:11:50.503Z,4.40
2022-10-09T07:14:20.993Z,4.80
2022-10-09T07:16:53.353Z,4.30
2022-10-09T07:19:23.989Z,3.90
2022-10-09T07:21:54.437Z,12.67
2022-10-09T07:24:25.504Z,4.85
2022-10-09T07:26:57.221Z,3.93
2022-10-09T07:29:27.612Z,4.10
2022-10-09T07:31:58.171Z,3.77
2022-10-09T07:34:28.670Z,3.97
2022-10-09T07:36:59.063Z,4.10
2022-10-09T07:39:29.497Z,3.93
2022-10-09T07:41:59.868Z,3.40
2022-10-09T07:44:30.224Z,4.40
2022-10-09T07:47:00.775Z,4.08
2022-10-09T07:49:31.352Z,3.60
2022-10-09T07:52:01.803Z,4.30
2022-10-09T07:54:32.177Z,4.12
2022-10-09T07:57:02.548Z,3.77
2022-10-09T07:59:33.015Z,3.60
2022-10-09T08:02:03.553Z,8.03
2022-10-09T08:04:34.194Z,4.73
2022-10-09T08:07:04.727Z,4.75
2022-10-09T08:09:35.123Z,3.83
2022-10-09T08:12:07.439Z,3.80
2022-10-09T08:14:37.884Z,3.90
2022-10-09T08:17:08.317Z,4.00
2022-10-09T08:19:38.712Z,3.80
2022-10-09T08:22:10.736Z,3.20
2022-10-09T08:24:41.143Z,4.67
2022-10-09T08:27:14.399Z,4.67
2022-10-09T08:29:44.826Z,4.47
2022-10-09T08:32:15.297Z,4.07
2022-10-09T08:34:45.617Z,3.60
2022-10-09T08:37:16.024Z,5.03
2022-10-09T08:39:46.352Z,4.20
2022-10-09T08:42:19.913Z,3.45
2022-10-09T08:44:50.766Z,3.93
2022-10-09T08:47:42.061Z,4.03
2022-10-09T08:50:15.475Z,3.80
2022-10-09T08:52:56.052Z,3.55
2022-10-09T08:58:39.113Z,3.55
2022-10-09T09:01:21.469Z,3.47
2022-10-09T09:04:04.163Z,3.35
2022-10-09T09:06:43.366Z,3.72
2022-10-09T09:09:36.378Z,5.90
2022-10-09T09:12:25.213Z,3.50
2022-10-09T09:14:58.762Z,4.05
2022-10-09T09:17:38.093Z,3.30
2022-10-09T09:20:45.451Z,3.40
2022-10-09T09:23:17.414Z,3.02
2022-10-09T09:25:48.186Z,2.90
2022-10-09T09:28:30.821Z,2.90
2022-10-09T09:31:19.258Z,2.52
2022-10-09T09:34:13.741Z,2.70
2022-10-09T09:36:59.325Z,2.22
2022-10-09T09:40:30.992Z,2.50
2022-10-09T09:42:17.333Z,2.40
2022-10-09T09:44:53.760Z,3.00
2022-10-09T09:47:32.979Z,2.10
2022-10-09T09:50:05.597Z,2.98
2022-10-09T09:52:42.082Z,2.33
2022-10-09T09:55:27.432Z,2.30
2022-10-09T09:58:07.168Z,2.70
2022-10-09T10:00:37.587Z,2.40
2022-10-09T10:03:17.852Z,2.42
2022-10-09T10:05:48.671Z,3.02
2022-10-09T10:08:30.946Z,2.33
2022-10-09T10:11:03.900Z,2.45
2022-10-09T10:13:52.147Z,2.27
2022-10-09T10:16:27.674Z,2.10
2022-10-09T10:18:59.269Z,1.98
2022-10-09T10:21:32.723Z,2.42
2022-10-09T10:24:08.670Z,2.10
2022-10-09T10:26:49.105Z,2.25
2022-10-09T10:29:34.506Z,2.95
2022-10-09T10:32:07.960Z,2.67
2022-10-09T10:34:44.058Z,1.92
2022-10-09T10:37:17.625Z,1.90
2022-10-09T10:39:53.652Z,2.15
2022-10-09T10:42:27.202Z,2.22
2022-10-09T10:45:12.960Z,2.45
2022-10-09T10:47:52.570Z,2.00
2022-10-09T10:50:25.120Z,2.62
2022-10-09T10:53:17.189Z,2.17
2022-10-09T10:56:08.108Z,2.20
2022-10-09T10:58:50.547Z,2.35
2022-10-09T11:01:23.921Z,2.08
2022-10-09T11:04:12.378Z,2.17
2022-10-09T11:06:54.833Z,2.00
2022-10-09T11:09:52.022Z,2.02
2022-10-09T11:12:52.921Z,1.70
2022-10-09T11:15:41.466Z,2.02
2022-10-09T11:18:20.573Z,1.57
2022-10-09T11:21:02.536Z,2.10
2022-10-09T11:23:55.366Z,1.90
2022-10-09T11:27:03.962Z,1.57
2022-10-09T11:29:53.920Z,5.08
2022-10-09T11:32:33.231Z,1.30
2022-10-09T11:35:18.601Z,1.50
2022-10-09T11:38:00.733Z,1.80
2022-10-09T11:40:35.788Z,1.80
2022-10-09T11:43:30.208Z,2.47
2022-10-09T11:46:15.111Z,1.47
2022-10-09T11:48:57.192Z,1.90
2022-10-09T11:51:36.515Z,2.30
2022-10-09T11:54:09.982Z,1.40
2022-10-09T11:56:40.361Z,1.72
2022-10-09T11:59:13.809Z,1.62
2022-10-09T12:01:46.697Z,1.52
2022-10-09T12:04:43.493Z,1.90
2022-10-09T12:07:01.462Z,1.80
2022-10-09T12:09:40.935Z,1.80
2022-10-09T12:12:20.852Z,1.70
2022-10-09T12:14:53.106Z,1.67
2022-10-09T12:17:26.584Z,1.70
2022-10-09T12:20:02.676Z,1.60
2022-10-09T12:22:56.403Z,1.80
2022-10-09T12:25:25.743Z,1.80
2022-10-09T12:27:58.414Z,1.95
2022-10-09T12:30:34.586Z,1.57
2022-10-09T12:33:23.386Z,1.70
2022-10-09T12:36:09.036Z,1.55
2022-10-09T12:38:39.462Z,1.57
2022-10-09T12:41:20.010Z,2.20
2022-10-09T12:43:48.937Z,1.87
2022-10-09T12:46:30.853Z,1.70
2022-10-09T12:49:03.810Z,1.50
2022-10-09T12:51:35.156Z,1.70
2022-10-09T12:54:10.915Z,1.82
2022-10-09T12:56:41.410Z,1.70
2022-10-09T12:59:13.622Z,1.67
2022-10-09T13:01:45.620Z,1.40
2022-10-09T13:04:34.015Z,1.70
2022-10-09T13:07:10.234Z,2.08
2022-10-09T13:09:42.240Z,2.02
2022-10-09T13:12:24.327Z,1.72
2022-10-09T13:14:57.581Z,1.80
2022-10-09T13:17:40.633Z,1.85
2022-10-09T13:20:17.125Z,1.90
2022-10-09T13:23:02.169Z,1.55
2022-10-09T13:25:41.629Z,1.75
2022-10-09T13:28:15.147Z,1.70
2022-10-09T13:30:45.770Z,2.10
2022-10-09T13:33:17.948Z,1.80
2022-10-09T13:35:48.632Z,1.70
2022-10-09T13:38:20.420Z,1.98
2022-10-09T13:40:51.337Z,1.85
2022-10-09T13:43:27.209Z,1.50
2022-10-09T13:45:58.163Z,1.37
2022-10-09T13:48:30.157Z,1.55
2022-10-09T13:51:00.761Z,1.40
2022-10-09T13:53:31.078Z,1.52
2022-10-09T13:56:02.049Z,1.75
2022-10-09T13:58:32.439Z,2.87
2022-10-09T14:01:03.217Z,1.65
2022-10-09T14:03:33.957Z,1.40
2022-10-09T14:06:06.237Z,1.75
2022-10-09T14:08:36.839Z,1.80
2022-10-09T14:11:07.466Z,2.27
2022-10-09T14:13:37.923Z,1.80
2022-10-09T14:16:08.709Z,1.60
2022-10-09T14:18:39.142Z,1.67
2022-10-09T14:21:15.601Z,2.05
2022-10-09T14:23:46.162Z,1.90
2022-10-09T14:26:16.677Z,1.50
2022-10-09T14:28:47.099Z,1.70
2022-10-09T14:31:17.653Z,1.57
2022-10-09T14:33:49.302Z,1.50
2022-10-09T14:36:20.725Z,1.60
2022-10-09T14:38:51.570Z,1.37
2022-10-09T14:41:22.852Z,1.98
2022-10-09T14:43:56.789Z,1.90
2022-10-09T14:46:28.609Z,1.72
2022-10-09T14:48:59.103Z,1.80
2022-10-09T14:51:33.609Z,1.80
2022-10-09T14:54:01.784Z,1.92
2022-10-09T14:56:32.639Z,2.80
2022-10-09T14:59:05.346Z,1.67
2022-10-09T15:01:36.156Z,1.50
2022-10-09T15:04:07.275Z,1.70
2022-10-09T15:06:37.952Z,1.55
2022-10-09T15:09:08.310Z,1.70
2022-10-09T15:11:38.767Z,3.50
2022-10-09T15:14:09.153Z,1.60
2022-10-09T15:16:39.467Z,1.65
2022-10-09T15:19:09.759Z,1.85
2022-10-09T15:21:40.250Z,1.67
2022-10-09T15:24:11.387Z,2.12
2022-10-09T15:26:42.035Z,1.70
2022-10-09T15:29:12.486Z,1.55
2022-10-09T15:31:43.165Z,2.02
2022-10-09T15:34:16.709Z,2.20
2022-10-09T15:36:47.845Z,2.45
2022-10-09T15:39:18.428Z,2.47
2022-10-09T15:41:48.943Z,1.80
2022-10-09T15:44:21.435Z,2.22
2022-10-09T15:46:52.144Z,2.15
2022-10-09T15:49:22.526Z,2.10
2022-10-09T15:51:53.368Z,2.10
2022-10-09T15:54:25.665Z,2.50
2022-10-09T15:56:56.034Z,2.62
2022-10-09T15:59:29.720Z,2.22
2022-10-09T16:02:00.237Z,2.35
2022-10-09T16:04:31.075Z,2.20
2022-10-09T16:07:01.789Z,2.50
2022-10-09T16:09:36.278Z,2.90
2022-10-09T16:12:07.495Z,2.10
2022-10-09T16:14:38.341Z,2.47
2022-10-09T16:17:11.340Z,2.85
2022-10-09T16:19:40.898Z,2.50
2022-10-09T16:22:12.998Z,2.42
2022-10-09T16:24:43.472Z,2.80
2022-10-09T16:27:13.949Z,2.35
2022-10-09T16:29:44.673Z,2.60
2022-10-09T16:32:15.053Z,2.52
2022-10-09T16:34:45.438Z,2.60
2022-10-09T16:37:15.841Z,3.25
2022-10-09T16:39:46.296Z,3.25
2022-10-09T16:42:17.630Z,2.60
2022-10-09T16:44:51.515Z,3.33
2022-10-09T16:47:21.883Z,2.92
2022-10-09T16:49:52.454Z,3.30
2022-10-09T16:52:22.927Z,3.10
2022-10-09T16:54:57.013Z,3.83
2022-10-09T16:57:27.181Z,2.95
2022-10-09T16:59:57.635Z,3.60
2022-10-09T17:02:28.626Z,3.70
2022-10-09T17:04:59.010Z,4.37
2022-10-09T17:07:30.307Z,5.53
2022-10-09T17:10:00.703Z,4.25
2022-10-09T17:12:31.069Z,3.35
2022-10-09T17:15:01.464Z,3.85
2022-10-09T17:17:31.864Z,3.47
2022-10-09T17:20:02.586Z,3.37
2022-10-09T17:22:32.977Z,3.17
2022-10-09T17:25:03.375Z,3.40
2022-10-09T17:27:33.776Z,3.80
2022-10-09T17:30:04.302Z,3.77
2022-10-09T17:32:34.667Z,3.47
2022-10-09T17:35:07.046Z,4.20
2022-10-09T17:37:37.509Z,3.90
2022-10-09T17:40:08.514Z,4.60
2022-10-09T17:42:39.197Z,3.92
2022-10-09T17:45:10.152Z,4.15
2022-10-09T17:47:40.616Z,4.47
2022-10-09T17:50:12.153Z,4.33
2022-10-09T17:52:42.629Z,4.78
2022-10-09T17:55:13.035Z,4.50
2022-10-09T17:57:43.567Z,3.67
2022-10-09T18:00:19.656Z,3.90
2022-10-09T18:02:47.166Z,4.35
2022-10-09T18:05:17.690Z,4.10
2022-10-09T18:07:48.515Z,3.72
2022-10-09T18:10:20.774Z,4.95
2022-10-09T18:12:51.367Z,9.08
2022-10-09T18:15:21.924Z,5.92
2022-10-09T18:17:52.780Z,4.12
2022-10-09T18:20:26.508Z,4.15
2022-10-09T18:22:57.054Z,3.50
2022-10-09T18:25:27.551Z,3.83
2022-10-09T18:27:58.520Z,3.60
2022-10-09T18:30:28.931Z,4.70
2022-10-09T18:32:59.339Z,4.15
2022-10-09T18:35:30.251Z,4.00
2022-10-09T18:38:00.696Z,3.92
2022-10-09T18:40:31.032Z,5.03
2022-10-09T18:43:01.497Z,7.83
2022-10-09T18:45:32.468Z,6.40
2022-10-09T18:48:03.841Z,4.20
2022-10-09T18:50:34.404Z,4.58
2022-10-09T18:53:05.503Z,4.10
2022-10-09T18:55:36.105Z,3.72
2022-10-09T18:58:07.151Z,3.15
2022-10-09T19:00:39.355Z,3.50
2022-10-09T19:03:09.868Z,3.87
2022-10-09T19:05:40.338Z,3.47
2022-10-09T19:08:10.862Z,3.35
2022-10-09T19:10:41.237Z,3.27
2022-10-09T19:13:11.963Z,4.97
2022-10-09T19:15:42.331Z,3.40
2022-10-09T19:18:12.734Z,4.05
2022-10-09T19:20:43.040Z,3.83
2022-10-09T19:23:15.040Z,5.62
2022-10-09T19:25:50.542Z,5.60
2022-10-09T19:28:22.198Z,7.28
2022-10-09T19:30:53.380Z,4.40
2022-10-09T19:33:23.736Z,4.30
2022-10-09T19:35:56.500Z,4.12
2022-10-09T19:38:27.934Z,3.80
2022-10-09T19:41:07.167Z,3.77
2022-10-09T19:43:38.211Z,3.80
2022-10-09T19:46:11.640Z,4.00
2022-10-09T19:48:42.269Z,4.28
2022-10-09T19:51:15.903Z,4.90
2022-10-09T19:53:46.721Z,5.47
2022-10-09T19:56:20.059Z,4.40
2022-10-09T19:58:51.195Z,4.90
2022-10-09T20:01:24.828Z,4.83
2022-10-09T20:03:58.269Z,6.33
2022-10-09T20:06:29.472Z,4.75
2022-10-09T20:09:00.245Z,4.15
2022-10-09T20:11:30.584Z,4.30
2022-10-09T20:14:02.791Z,4.40
2022-10-09T20:16:33.610Z,4.60
2022-10-09T20:19:05.499Z,5.92
2022-10-09T20:21:36.248Z,4.33
2022-10-09T20:24:06.786Z,9.25
2022-10-09T20:26:42.204Z,5.00
2022-10-09T20:29:09.467Z,5.10
2022-10-09T20:31:40.439Z,5.92
2022-10-09T20:34:10.829Z,5.87
2022-10-09T20:36:41.330Z,3.77
2022-10-09T20:39:16.195Z,3.87
2022-10-09T20:41:46.709Z,3.67
2022-10-09T20:44:17.015Z,3.77
2022-10-09T20:46:47.423Z,5.03
2022-10-09T20:49:18.095Z,5.05
2022-10-09T20:51:48.511Z,5.50
2022-10-09T20:54:20.708Z,4.20
2022-10-09T20:56:51.502Z,5.33
2022-10-09T20:59:22.067Z,4.40
2022-10-09T21:01:52.566Z,4.05
2022-10-09T21:04:22.946Z,3.75
2022-10-09T21:06:53.478Z,3.70
2022-10-09T21:09:24.015Z,4.40
2022-10-09T21:11:54.478Z,3.52
2022-10-09T21:14:24.923Z,4.00
2022-10-09T21:16:55.349Z,3.35
2022-10-09T21:19:25.977Z,3.10
2022-10-09T21:21:56.416Z,2.95
2022-10-09T21:24:30.037Z,3.33
2022-10-09T21:27:00.356Z,3.27
2022-10-09T21:29:30.673Z,3.05
2022-10-09T21:32:01.115Z,3.10
2022-10-09T21:34:31.495Z,3.70
2022-10-09T21:37:20.355Z,3.50
2022-10-09T21:39:33.996Z,3.27
2022-10-09T21:42:04.470Z,4.10
2022-10-09T21:44:34.884Z,3.37
2022-10-09T21:47:05.518Z,2.83
2022-10-09T21:49:35.994Z,3.35
2022-10-09T21:52:06.447Z,3.17
2022-10-09T21:54:36.835Z,3.12
2022-10-09T21:57:07.208Z,3.65
2022-10-09T21:59:37.538Z,3.62
2022-10-09T22:02:07.877Z,3.08
2022-10-09T22:04:38.367Z,3.37
2022-10-09T22:07:08.873Z,4.00
2022-10-09T22:09:39.497Z,3.55
2022-10-09T22:12:09.924Z,3.60
2022-10-09T22:14:40.353Z,3.00
2022-10-09T22:17:11.069Z,3.15
2022-10-09T22:19:42.049Z,3.10
2022-10-09T22:22:12.457Z,2.85
2022-10-09T22:24:42.841Z,3.10
2022-10-09T22:27:13.179Z,2.80
2022-10-09T22:29:43.473Z,2.90
2022-10-09T22:32:13.799Z,3.10
2022-10-09T22:34:44.160Z,3.43
2022-10-09T22:37:14.637Z,3.00
2022-10-09T22:39:44.976Z,3.67
2022-10-09T22:42:15.623Z,3.27
2022-10-09T22:44:46.001Z,2.92
2022-10-09T22:47:16.391Z,3.30
2022-10-09T22:49:46.698Z,3.10
2022-10-09T22:52:17.178Z,2.70
2022-10-09T22:54:47.780Z,3.02
2022-10-09T22:57:18.938Z,3.15
2022-10-09T22:59:49.293Z,3.22
2022-10-09T23:02:19.606Z,3.60
2022-10-09T23:04:50.011Z,3.40
2022-10-09T23:07:20.411Z,3.00
2022-10-09T23:09:50.782Z,3.08
2022-10-09T23:12:21.327Z,3.40
2022-10-09T23:14:51.789Z,3.50
2022-10-09T23:17:22.199Z,3.08
2022-10-09T23:19:52.574Z,3.50
2022-10-09T23:22:23.102Z,3.25
2022-10-09T23:24:53.544Z,3.20
2022-10-09T23:27:23.933Z,3.17
2022-10-09T23:29:54.357Z,3.92
2022-10-09T23:32:24.952Z,3.00
2022-10-09T23:34:55.342Z,3.17
2022-10-09T23:37:25.719Z,3.08
2022-10-09T23:39:56.106Z,2.77
2022-10-09T23:42:26.636Z,3.00
2022-10-09T23:44:57.081Z,3.40
2022-10-09T23:47:27.515Z,3.10
2022-10-09T23:49:57.945Z,3.58
2022-10-09T23:52:28.356Z,3.20
2022-10-09T23:54:58.665Z,3.40
2022-10-09T23:57:29.052Z,3.33
2022-10-09T23:59:59.522Z,3.15
